sensor_id;sensor_type;location;lat;lon;timestamp;P1;durP1;ratioP1;P2;durP2;ratioP2
7471;SDS011;3777;48.722;8.110;2024-03-08T00:01:54;25.33;;;17.73;;
7471;SDS011;3777;48.722;8.110;2024-03-08T00:04:21;23.13;;;16.23;;
7471;SDS011;3777;48.722;8.110;2024-03-08T00:06:48;21.30;;;15.63;;
7471;SDS011;3777;48.722;8.110;2024-03-08T00:09:15;21.10;;;14.93;;
7471;SDS011;3777;48.722;8.110;2024-03-08T00:11:42;22.33;;;15.37;;
7471;SDS011;3777;48.722;8.110;2024-03-08T00:14:09;21.88;;;17.15;;
7471;SDS011;3777;48.722;8.110;2024-03-08T00:16:38;22.50;;;16.03;;
7471;SDS011;3777;48.722;8.110;2024-03-08T00:19:07;19.93;;;14.67;;
7471;SDS011;3777;48.722;8.110;2024-03-08T00:21:34;20.43;;;15.60;;
7471;SDS011;3777;48.722;8.110;2024-03-08T00:24:01;21.27;;;15.37;;
7471;SDS011;3777;48.722;8.110;2024-03-08T00:26:28;25.25;;;19.67;;
7471;SDS011;3777;48.722;8.110;2024-03-08T00:28:55;21.37;;;15.90;;
7471;SDS011;3777;48.722;8.110;2024-03-08T00:31:23;21.33;;;15.13;;
7471;SDS011;3777;48.722;8.110;2024-03-08T00:33:51;19.80;;;16.77;;
7471;SDS011;3777;48.722;8.110;2024-03-08T00:36:18;23.00;;;17.53;;
7471;SDS011;3777;48.722;8.110;2024-03-08T00:38:45;28.83;;;20.13;;
7471;SDS011;3777;48.722;8.110;2024-03-08T00:41:12;26.27;;;20.23;;
7471;SDS011;3777;48.722;8.110;2024-03-08T00:43:39;28.30;;;20.47;;
7471;SDS011;3777;48.722;8.110;2024-03-08T00:46:05;28.23;;;19.73;;
7471;SDS011;3777;48.722;8.110;2024-03-08T00:48:32;24.60;;;17.93;;
7471;SDS011;3777;48.722;8.110;2024-03-08T00:51:01;22.15;;;18.45;;
7471;SDS011;3777;48.722;8.110;2024-03-08T00:53:27;22.67;;;16.67;;
7471;SDS011;3777;48.722;8.110;2024-03-08T00:55:54;22.63;;;16.13;;
7471;SDS011;3777;48.722;8.110;2024-03-08T00:58:21;23.27;;;16.47;;
7471;SDS011;3777;48.722;8.110;2024-03-08T01:00:48;22.43;;;15.37;;
7471;SDS011;3777;48.722;8.110;2024-03-08T01:03:15;21.40;;;14.90;;
7471;SDS011;3777;48.722;8.110;2024-03-08T01:05:42;19.37;;;13.83;;
7471;SDS011;3777;48.722;8.110;2024-03-08T01:08:10;19.23;;;14.30;;
7471;SDS011;3777;48.722;8.110;2024-03-08T01:10:37;19.27;;;14.80;;
7471;SDS011;3777;48.722;8.110;2024-03-08T01:13:04;19.90;;;14.33;;
7471;SDS011;3777;48.722;8.110;2024-03-08T01:15:31;20.20;;;14.67;;
7471;SDS011;3777;48.722;8.110;2024-03-08T01:17:57;19.97;;;14.40;;
7471;SDS011;3777;48.722;8.110;2024-03-08T01:20:25;19.47;;;14.03;;
7471;SDS011;3777;48.722;8.110;2024-03-08T01:22:53;20.77;;;15.07;;
7471;SDS011;3777;48.722;8.110;2024-03-08T01:25:21;21.57;;;14.87;;
7471;SDS011;3777;48.722;8.110;2024-03-08T01:27:48;18.87;;;14.30;;
7471;SDS011;3777;48.722;8.110;2024-03-08T01:30:14;19.37;;;14.90;;
7471;SDS011;3777;48.722;8.110;2024-03-08T01:32:42;19.50;;;14.37;;
7471;SDS011;3777;48.722;8.110;2024-03-08T01:35:09;18.23;;;13.53;;
7471;SDS011;3777;48.722;8.110;2024-03-08T01:37:36;18.00;;;13.47;;
7471;SDS011;3777;48.722;8.110;2024-03-08T01:40:03;20.30;;;14.27;;
7471;SDS011;3777;48.722;8.110;2024-03-08T01:42:33;19.90;;;14.77;;
7471;SDS011;3777;48.722;8.110;2024-03-08T01:45:02;20.07;;;14.47;;
7471;SDS011;3777;48.722;8.110;2024-03-08T01:47:30;19.50;;;13.90;;
7471;SDS011;3777;48.722;8.110;2024-03-08T01:49:57;19.67;;;14.47;;
7471;SDS011;3777;48.722;8.110;2024-03-08T01:52:26;19.73;;;14.83;;
7471;SDS011;3777;48.722;8.110;2024-03-08T01:54:53;21.27;;;15.80;;
7471;SDS011;3777;48.722;8.110;2024-03-08T01:57:20;23.03;;;15.73;;
7471;SDS011;3777;48.722;8.110;2024-03-08T01:59:49;20.83;;;14.87;;
7471;SDS011;3777;48.722;8.110;2024-03-08T02:02:16;19.43;;;14.73;;
7471;SDS011;3777;48.722;8.110;2024-03-08T02:04:45;18.73;;;13.90;;
7471;SDS011;3777;48.722;8.110;2024-03-08T02:07:12;20.50;;;14.67;;
7471;SDS011;3777;48.722;8.110;2024-03-08T02:09:39;20.37;;;14.87;;
7471;SDS011;3777;48.722;8.110;2024-03-08T02:12:06;23.07;;;15.53;;
7471;SDS011;3777;48.722;8.110;2024-03-08T02:14:34;21.20;;;14.90;;
7471;SDS011;3777;48.722;8.110;2024-03-08T02:17:02;22.47;;;16.67;;
7471;SDS011;3777;48.722;8.110;2024-03-08T02:19:30;24.70;;;17.73;;
7471;SDS011;3777;48.722;8.110;2024-03-08T02:21:59;25.67;;;17.93;;
7471;SDS011;3777;48.722;8.110;2024-03-08T02:24:29;26.97;;;19.27;;
7471;SDS011;3777;48.722;8.110;2024-03-08T02:26:56;30.63;;;19.67;;
7471;SDS011;3777;48.722;8.110;2024-03-08T02:29:22;31.93;;;20.33;;
7471;SDS011;3777;48.722;8.110;2024-03-08T02:31:50;27.73;;;19.47;;
7471;SDS011;3777;48.722;8.110;2024-03-08T02:34:17;29.13;;;19.90;;
7471;SDS011;3777;48.722;8.110;2024-03-08T02:36:45;28.03;;;20.33;;
7471;SDS011;3777;48.722;8.110;2024-03-08T02:39:13;30.53;;;19.93;;
7471;SDS011;3777;48.722;8.110;2024-03-08T02:41:40;28.73;;;19.90;;
7471;SDS011;3777;48.722;8.110;2024-03-08T02:44:07;31.00;;;20.03;;
7471;SDS011;3777;48.722;8.110;2024-03-08T02:46:34;30.00;;;20.53;;
7471;SDS011;3777;48.722;8.110;2024-03-08T02:49:01;30.20;;;21.43;;
7471;SDS011;3777;48.722;8.110;2024-03-08T02:51:28;30.90;;;21.30;;
7471;SDS011;3777;48.722;8.110;2024-03-08T02:53:56;30.57;;;20.50;;
7471;SDS011;3777;48.722;8.110;2024-03-08T02:56:24;28.23;;;20.10;;
7471;SDS011;3777;48.722;8.110;2024-03-08T02:58:51;29.90;;;20.97;;
7471;SDS011;3777;48.722;8.110;2024-03-08T03:01:18;30.57;;;20.40;;
7471;SDS011;3777;48.722;8.110;2024-03-08T03:03:47;33.57;;;21.33;;
7471;SDS011;3777;48.722;8.110;2024-03-08T03:06:14;31.57;;;21.77;;
7471;SDS011;3777;48.722;8.110;2024-03-08T03:08:41;35.63;;;21.37;;
7471;SDS011;3777;48.722;8.110;2024-03-08T03:11:10;32.83;;;20.67;;
7471;SDS011;3777;48.722;8.110;2024-03-08T03:13:39;28.93;;;19.17;;
7471;SDS011;3777;48.722;8.110;2024-03-08T03:16:07;31.07;;;20.60;;
7471;SDS011;3777;48.722;8.110;2024-03-08T03:18:35;29.57;;;20.10;;
7471;SDS011;3777;48.722;8.110;2024-03-08T03:21:02;30.17;;;20.10;;
7471;SDS011;3777;48.722;8.110;2024-03-08T03:23:32;30.50;;;20.67;;
7471;SDS011;3777;48.722;8.110;2024-03-08T03:25:59;30.37;;;20.27;;
7471;SDS011;3777;48.722;8.110;2024-03-08T03:28:27;31.07;;;20.73;;
7471;SDS011;3777;48.722;8.110;2024-03-08T03:30:55;35.83;;;21.33;;
7471;SDS011;3777;48.722;8.110;2024-03-08T03:33:23;33.80;;;21.70;;
7471;SDS011;3777;48.722;8.110;2024-03-08T03:35:50;34.23;;;21.83;;
7471;SDS011;3777;48.722;8.110;2024-03-08T03:38:17;30.83;;;20.20;;
7471;SDS011;3777;48.722;8.110;2024-03-08T03:40:45;35.03;;;22.23;;
7471;SDS011;3777;48.722;8.110;2024-03-08T03:43:13;33.50;;;20.90;;
7471;SDS011;3777;48.722;8.110;2024-03-08T03:45:40;34.93;;;21.93;;
7471;SDS011;3777;48.722;8.110;2024-03-08T03:48:08;33.43;;;22.03;;
7471;SDS011;3777;48.722;8.110;2024-03-08T03:50:36;32.80;;;21.77;;
7471;SDS011;3777;48.722;8.110;2024-03-08T03:53:03;32.67;;;21.17;;
7471;SDS011;3777;48.722;8.110;2024-03-08T03:55:32;30.90;;;21.13;;
7471;SDS011;3777;48.722;8.110;2024-03-08T03:57:59;32.47;;;21.00;;
7471;SDS011;3777;48.722;8.110;2024-03-08T04:00:26;31.87;;;22.13;;
7471;SDS011;3777;48.722;8.110;2024-03-08T04:02:53;35.60;;;22.60;;
7471;SDS011;3777;48.722;8.110;2024-03-08T04:05:25;33.17;;;21.60;;
7471;SDS011;3777;48.722;8.110;2024-03-08T04:07:52;36.33;;;23.17;;
7471;SDS011;3777;48.722;8.110;2024-03-08T04:10:19;35.37;;;22.90;;
7471;SDS011;3777;48.722;8.110;2024-03-08T04:12:46;33.43;;;22.87;;
7471;SDS011;3777;48.722;8.110;2024-03-08T04:15:13;36.07;;;22.07;;
7471;SDS011;3777;48.722;8.110;2024-03-08T04:17:40;35.15;;;26.63;;
7471;SDS011;3777;48.722;8.110;2024-03-08T04:20:07;34.93;;;23.03;;
7471;SDS011;3777;48.722;8.110;2024-03-08T04:22:36;32.13;;;21.07;;
7471;SDS011;3777;48.722;8.110;2024-03-08T04:25:04;32.57;;;22.23;;
7471;SDS011;3777;48.722;8.110;2024-03-08T04:27:31;31.97;;;21.37;;
7471;SDS011;3777;48.722;8.110;2024-03-08T04:29:59;32.83;;;22.00;;
7471;SDS011;3777;48.722;8.110;2024-03-08T04:32:26;29.10;;;19.90;;
7471;SDS011;3777;48.722;8.110;2024-03-08T04:34:54;30.87;;;20.20;;
7471;SDS011;3777;48.722;8.110;2024-03-08T04:37:21;35.17;;;21.53;;
7471;SDS011;3777;48.722;8.110;2024-03-08T04:39:50;34.83;;;21.60;;
7471;SDS011;3777;48.722;8.110;2024-03-08T04:42:17;32.87;;;21.67;;
7471;SDS011;3777;48.722;8.110;2024-03-08T04:44:43;34.13;;;22.00;;
7471;SDS011;3777;48.722;8.110;2024-03-08T04:47:10;32.57;;;21.90;;
7471;SDS011;3777;48.722;8.110;2024-03-08T04:49:37;34.77;;;21.60;;
7471;SDS011;3777;48.722;8.110;2024-03-08T04:52:04;36.60;;;22.67;;
7471;SDS011;3777;48.722;8.110;2024-03-08T04:54:32;36.50;;;22.70;;
7471;SDS011;3777;48.722;8.110;2024-03-08T04:57:00;32.83;;;21.90;;
7471;SDS011;3777;48.722;8.110;2024-03-08T04:59:27;32.10;;;21.30;;
7471;SDS011;3777;48.722;8.110;2024-03-08T05:01:54;33.40;;;22.63;;
7471;SDS011;3777;48.722;8.110;2024-03-08T05:04:21;34.20;;;22.40;;
7471;SDS011;3777;48.722;8.110;2024-03-08T05:06:48;34.17;;;22.77;;
7471;SDS011;3777;48.722;8.110;2024-03-08T05:09:15;35.47;;;22.50;;
7471;SDS011;3777;48.722;8.110;2024-03-08T05:11:44;34.23;;;23.03;;
7471;SDS011;3777;48.722;8.110;2024-03-08T05:14:13;35.63;;;21.70;;
7471;SDS011;3777;48.722;8.110;2024-03-08T05:16:41;36.97;;;23.80;;
7471;SDS011;3777;48.722;8.110;2024-03-08T05:19:08;35.97;;;23.00;;
7471;SDS011;3777;48.722;8.110;2024-03-08T05:21:35;31.97;;;21.53;;
7471;SDS011;3777;48.722;8.110;2024-03-08T05:24:02;34.23;;;21.97;;
7471;SDS011;3777;48.722;8.110;2024-03-08T05:26:30;36.17;;;22.43;;
7471;SDS011;3777;48.722;8.110;2024-03-08T05:28:58;35.77;;;21.93;;
7471;SDS011;3777;48.722;8.110;2024-03-08T05:31:26;34.20;;;22.17;;
7471;SDS011;3777;48.722;8.110;2024-03-08T05:33:53;33.00;;;21.10;;
7471;SDS011;3777;48.722;8.110;2024-03-08T05:36:20;35.80;;;22.77;;
7471;SDS011;3777;48.722;8.110;2024-03-08T05:38:47;35.60;;;22.93;;
7471;SDS011;3777;48.722;8.110;2024-03-08T05:41:15;33.20;;;22.13;;
7471;SDS011;3777;48.722;8.110;2024-03-08T05:43:42;32.53;;;21.40;;
7471;SDS011;3777;48.722;8.110;2024-03-08T05:46:09;32.20;;;20.80;;
7471;SDS011;3777;48.722;8.110;2024-03-08T05:48:38;32.13;;;21.77;;
7471;SDS011;3777;48.722;8.110;2024-03-08T05:51:04;35.37;;;21.40;;
7471;SDS011;3777;48.722;8.110;2024-03-08T05:53:31;33.73;;;21.83;;
7471;SDS011;3777;48.722;8.110;2024-03-08T05:55:58;32.13;;;21.40;;
7471;SDS011;3777;48.722;8.110;2024-03-08T05:58:27;35.83;;;22.00;;
7471;SDS011;3777;48.722;8.110;2024-03-08T06:00:56;33.73;;;22.13;;
7471;SDS011;3777;48.722;8.110;2024-03-08T06:03:23;32.20;;;21.33;;
7471;SDS011;3777;48.722;8.110;2024-03-08T06:05:51;31.13;;;20.90;;
7471;SDS011;3777;48.722;8.110;2024-03-08T06:08:18;34.33;;;22.53;;
7471;SDS011;3777;48.722;8.110;2024-03-08T06:10:45;33.37;;;21.33;;
7471;SDS011;3777;48.722;8.110;2024-03-08T06:13:14;37.10;;;21.73;;
7471;SDS011;3777;48.722;8.110;2024-03-08T06:15:41;36.28;;;26.95;;
7471;SDS011;3777;48.722;8.110;2024-03-08T06:18:08;33.17;;;23.07;;
7471;SDS011;3777;48.722;8.110;2024-03-08T06:20:36;32.17;;;22.17;;
7471;SDS011;3777;48.722;8.110;2024-03-08T06:23:05;33.40;;;21.83;;
7471;SDS011;3777;48.722;8.110;2024-03-08T06:25:31;34.43;;;21.47;;
7471;SDS011;3777;48.722;8.110;2024-03-08T06:27:59;32.27;;;22.20;;
7471;SDS011;3777;48.722;8.110;2024-03-08T06:30:26;33.03;;;21.17;;
7471;SDS011;3777;48.722;8.110;2024-03-08T06:32:53;33.30;;;21.80;;
7471;SDS011;3777;48.722;8.110;2024-03-08T06:35:20;34.80;;;22.17;;
7471;SDS011;3777;48.722;8.110;2024-03-08T06:37:46;31.63;;;20.30;;
7471;SDS011;3777;48.722;8.110;2024-03-08T06:40:15;31.83;;;21.17;;
7471;SDS011;3777;48.722;8.110;2024-03-08T06:42:42;31.90;;;21.17;;
7471;SDS011;3777;48.722;8.110;2024-03-08T06:45:09;30.67;;;19.83;;
7471;SDS011;3777;48.722;8.110;2024-03-08T06:47:37;30.80;;;21.33;;
7471;SDS011;3777;48.722;8.110;2024-03-08T06:50:04;28.43;;;19.87;;
7471;SDS011;3777;48.722;8.110;2024-03-08T06:52:33;30.17;;;19.07;;
7471;SDS011;3777;48.722;8.110;2024-03-08T06:55:00;30.60;;;20.23;;
7471;SDS011;3777;48.722;8.110;2024-03-08T06:57:31;26.60;;;19.60;;
7471;SDS011;3777;48.722;8.110;2024-03-08T06:59:58;28.23;;;18.87;;
7471;SDS011;3777;48.722;8.110;2024-03-08T07:02:25;28.47;;;18.80;;
7471;SDS011;3777;48.722;8.110;2024-03-08T07:04:52;28.57;;;19.60;;
7471;SDS011;3777;48.722;8.110;2024-03-08T07:07:19;33.00;;;21.30;;
7471;SDS011;3777;48.722;8.110;2024-03-08T07:09:50;30.97;;;20.20;;
7471;SDS011;3777;48.722;8.110;2024-03-08T07:12:16;31.80;;;21.90;;
7471;SDS011;3777;48.722;8.110;2024-03-08T07:14:47;32.03;;;21.57;;
7471;SDS011;3777;48.722;8.110;2024-03-08T07:17:13;29.63;;;20.40;;
7471;SDS011;3777;48.722;8.110;2024-03-08T07:19:41;29.23;;;19.77;;
7471;SDS011;3777;48.722;8.110;2024-03-08T07:22:08;30.13;;;21.10;;
7471;SDS011;3777;48.722;8.110;2024-03-08T07:24:35;29.97;;;20.60;;
7471;SDS011;3777;48.722;8.110;2024-03-08T07:27:21;28.90;;;19.17;;
7471;SDS011;3777;48.722;8.110;2024-03-08T07:29:49;27.57;;;19.73;;
7471;SDS011;3777;48.722;8.110;2024-03-08T07:32:15;28.97;;;20.40;;
7471;SDS011;3777;48.722;8.110;2024-03-08T07:34:46;30.90;;;21.47;;
7471;SDS011;3777;48.722;8.110;2024-03-08T07:37:14;31.03;;;21.43;;
7471;SDS011;3777;48.722;8.110;2024-03-08T07:39:41;29.67;;;20.63;;
7471;SDS011;3777;48.722;8.110;2024-03-08T07:42:08;31.03;;;20.80;;
7471;SDS011;3777;48.722;8.110;2024-03-08T07:44:36;28.30;;;19.33;;
7471;SDS011;3777;48.722;8.110;2024-03-08T07:47:05;27.60;;;19.63;;
7471;SDS011;3777;48.722;8.110;2024-03-08T07:49:34;27.33;;;19.73;;
7471;SDS011;3777;48.722;8.110;2024-03-08T07:52:02;31.73;;;22.07;;
7471;SDS011;3777;48.722;8.110;2024-03-08T07:54:32;26.07;;;19.40;;
7471;SDS011;3777;48.722;8.110;2024-03-08T07:56:59;27.13;;;19.93;;
7471;SDS011;3777;48.722;8.110;2024-03-08T07:59:27;28.43;;;19.83;;
7471;SDS011;3777;48.722;8.110;2024-03-08T08:01:54;28.40;;;20.13;;
7471;SDS011;3777;48.722;8.110;2024-03-08T08:04:23;27.73;;;18.80;;
7471;SDS011;3777;48.722;8.110;2024-03-08T08:06:51;24.83;;;18.97;;
7471;SDS011;3777;48.722;8.110;2024-03-08T08:09:19;28.23;;;19.90;;
7471;SDS011;3777;48.722;8.110;2024-03-08T08:11:53;27.33;;;19.67;;
7471;SDS011;3777;48.722;8.110;2024-03-08T08:14:20;28.00;;;20.80;;
7471;SDS011;3777;48.722;8.110;2024-03-08T08:16:47;27.80;;;20.27;;
7471;SDS011;3777;48.722;8.110;2024-03-08T08:19:17;24.50;;;18.13;;
7471;SDS011;3777;48.722;8.110;2024-03-08T08:21:46;25.10;;;19.33;;
7471;SDS011;3777;48.722;8.110;2024-03-08T08:24:12;25.10;;;19.43;;
7471;SDS011;3777;48.722;8.110;2024-03-08T08:26:47;23.60;;;18.23;;
7471;SDS011;3777;48.722;8.110;2024-03-08T08:29:13;24.40;;;18.00;;
7471;SDS011;3777;48.722;8.110;2024-03-08T08:31:41;24.80;;;18.70;;
7471;SDS011;3777;48.722;8.110;2024-03-08T08:34:08;25.00;;;18.27;;
7471;SDS011;3777;48.722;8.110;2024-03-08T08:36:36;23.23;;;17.77;;
7471;SDS011;3777;48.722;8.110;2024-03-08T08:39:05;23.17;;;18.23;;
7471;SDS011;3777;48.722;8.110;2024-03-08T08:41:37;22.77;;;16.93;;
7471;SDS011;3777;48.722;8.110;2024-03-08T08:44:05;23.67;;;17.90;;
7471;SDS011;3777;48.722;8.110;2024-03-08T08:46:35;22.30;;;17.17;;
7471;SDS011;3777;48.722;8.110;2024-03-08T08:49:02;23.90;;;17.53;;
7471;SDS011;3777;48.722;8.110;2024-03-08T08:51:29;25.57;;;17.67;;
7471;SDS011;3777;48.722;8.110;2024-03-08T08:53:58;21.50;;;17.20;;
7471;SDS011;3777;48.722;8.110;2024-03-08T08:56:27;23.27;;;17.17;;
7471;SDS011;3777;48.722;8.110;2024-03-08T08:58:54;23.90;;;16.23;;
7471;SDS011;3777;48.722;8.110;2024-03-08T09:01:22;24.70;;;16.87;;
7471;SDS011;3777;48.722;8.110;2024-03-08T09:03:49;19.57;;;15.70;;
7471;SDS011;3777;48.722;8.110;2024-03-08T09:06:17;20.37;;;15.90;;
7471;SDS011;3777;48.722;8.110;2024-03-08T09:08:43;21.77;;;16.47;;
7471;SDS011;3777;48.722;8.110;2024-03-08T09:11:11;23.23;;;16.30;;
7471;SDS011;3777;48.722;8.110;2024-03-08T09:13:39;18.50;;;15.20;;
7471;SDS011;3777;48.722;8.110;2024-03-08T09:16:06;20.00;;;16.17;;
7471;SDS011;3777;48.722;8.110;2024-03-08T09:18:33;19.23;;;15.60;;
7471;SDS011;3777;48.722;8.110;2024-03-08T09:21:00;19.17;;;15.90;;
7471;SDS011;3777;48.722;8.110;2024-03-08T09:23:27;20.10;;;15.43;;
7471;SDS011;3777;48.722;8.110;2024-03-08T09:25:55;19.87;;;15.40;;
7471;SDS011;3777;48.722;8.110;2024-03-08T09:28:22;19.13;;;15.00;;
7471;SDS011;3777;48.722;8.110;2024-03-08T09:30:51;20.60;;;16.20;;
7471;SDS011;3777;48.722;8.110;2024-03-08T09:33:17;17.43;;;14.43;;
7471;SDS011;3777;48.722;8.110;2024-03-08T09:35:45;19.57;;;15.90;;
7471;SDS011;3777;48.722;8.110;2024-03-08T09:38:13;19.63;;;15.33;;
7471;SDS011;3777;48.722;8.110;2024-03-08T09:40:40;17.37;;;14.33;;
7471;SDS011;3777;48.722;8.110;2024-03-08T09:43:07;16.53;;;13.40;;
7471;SDS011;3777;48.722;8.110;2024-03-08T09:45:37;17.23;;;13.67;;
7471;SDS011;3777;48.722;8.110;2024-03-08T09:48:08;18.13;;;14.47;;
7471;SDS011;3777;48.722;8.110;2024-03-08T09:50:39;17.13;;;14.10;;
7471;SDS011;3777;48.722;8.110;2024-03-08T09:53:06;17.47;;;13.97;;
7471;SDS011;3777;48.722;8.110;2024-03-08T09:55:34;16.43;;;13.97;;
7471;SDS011;3777;48.722;8.110;2024-03-08T09:58:02;16.30;;;13.20;;
7471;SDS011;3777;48.722;8.110;2024-03-08T10:01:01;15.47;;;13.10;;
7471;SDS011;3777;48.722;8.110;2024-03-08T10:03:31;17.33;;;13.57;;
7471;SDS011;3777;48.722;8.110;2024-03-08T10:05:58;18.17;;;13.70;;
7471;SDS011;3777;48.722;8.110;2024-03-08T10:08:25;14.50;;;12.30;;
7471;SDS011;3777;48.722;8.110;2024-03-08T10:10:52;15.37;;;12.47;;
7471;SDS011;3777;48.722;8.110;2024-03-08T10:13:19;15.80;;;13.67;;
7471;SDS011;3777;48.722;8.110;2024-03-08T10:15:47;14.30;;;12.27;;
7471;SDS011;3777;48.722;8.110;2024-03-08T10:18:14;14.60;;;13.07;;
7471;SDS011;3777;48.722;8.110;2024-03-08T10:20:43;13.60;;;11.97;;
7471;SDS011;3777;48.722;8.110;2024-03-08T10:23:11;15.32;;;11.80;;
7471;SDS011;3777;48.722;8.110;2024-03-08T10:25:38;13.38;;;11.95;;
7471;SDS011;3777;48.722;8.110;2024-03-08T10:28:04;14.15;;;12.50;;
7471;SDS011;3777;48.722;8.110;2024-03-08T10:30:31;15.70;;;13.32;;
7471;SDS011;3777;48.722;8.110;2024-03-08T10:32:58;14.63;;;11.85;;
7471;SDS011;3777;48.722;8.110;2024-03-08T10:35:26;13.15;;;11.75;;
7471;SDS011;3777;48.722;8.110;2024-03-08T10:37:54;15.18;;;12.32;;
7471;SDS011;3777;48.722;8.110;2024-03-08T10:40:25;13.90;;;12.15;;
7471;SDS011;3777;48.722;8.110;2024-03-08T10:42:53;14.02;;;12.07;;
7471;SDS011;3777;48.722;8.110;2024-03-08T10:45:23;13.70;;;12.23;;
7471;SDS011;3777;48.722;8.110;2024-03-08T10:48:00;13.50;;;12.02;;
7471;SDS011;3777;48.722;8.110;2024-03-08T10:50:42;14.18;;;12.48;;
7471;SDS011;3777;48.722;8.110;2024-03-08T10:53:13;12.93;;;11.52;;
7471;SDS011;3777;48.722;8.110;2024-03-08T10:55:41;15.60;;;12.38;;
7471;SDS011;3777;48.722;8.110;2024-03-08T10:58:10;14.15;;;12.38;;
7471;SDS011;3777;48.722;8.110;2024-03-08T11:00:36;14.38;;;11.98;;
7471;SDS011;3777;48.722;8.110;2024-03-08T11:03:04;14.25;;;12.25;;
7471;SDS011;3777;48.722;8.110;2024-03-08T11:05:31;13.52;;;12.13;;
7471;SDS011;3777;48.722;8.110;2024-03-08T11:08:03;12.57;;;11.27;;
7471;SDS011;3777;48.722;8.110;2024-03-08T11:10:33;13.20;;;11.80;;
7471;SDS011;3777;48.722;8.110;2024-03-08T11:13:00;12.40;;;11.10;;
7471;SDS011;3777;48.722;8.110;2024-03-08T11:15:27;14.15;;;11.73;;
7471;SDS011;3777;48.722;8.110;2024-03-08T11:17:58;13.00;;;11.60;;
7471;SDS011;3777;48.722;8.110;2024-03-08T11:20:25;13.55;;;11.82;;
7471;SDS011;3777;48.722;8.110;2024-03-08T11:22:53;13.80;;;11.80;;
7471;SDS011;3777;48.722;8.110;2024-03-08T11:25:33;11.20;;;10.10;;
7471;SDS011;3777;48.722;8.110;2024-03-08T11:28:07;13.07;;;11.85;;
7471;SDS011;3777;48.722;8.110;2024-03-08T11:30:42;11.77;;;10.57;;
7471;SDS011;3777;48.722;8.110;2024-03-08T11:33:11;13.43;;;11.48;;
7471;SDS011;3777;48.722;8.110;2024-03-08T11:35:38;12.73;;;11.43;;
7471;SDS011;3777;48.722;8.110;2024-03-08T11:38:07;11.85;;;10.65;;
7471;SDS011;3777;48.722;8.110;2024-03-08T11:40:35;12.48;;;10.32;;
7471;SDS011;3777;48.722;8.110;2024-03-08T11:43:03;11.93;;;10.73;;
7471;SDS011;3777;48.722;8.110;2024-03-08T11:45:32;12.63;;;11.32;;
7471;SDS011;3777;48.722;8.110;2024-03-08T11:48:01;13.90;;;11.60;;
7471;SDS011;3777;48.722;8.110;2024-03-08T11:50:29;13.27;;;11.40;;
7471;SDS011;3777;48.722;8.110;2024-03-08T11:53:04;11.73;;;10.50;;
7471;SDS011;3777;48.722;8.110;2024-03-08T11:55:34;12.43;;;10.37;;
7471;SDS011;3777;48.722;8.110;2024-03-08T11:58:02;13.17;;;11.33;;
7471;SDS011;3777;48.722;8.110;2024-03-08T12:00:29;15.17;;;12.00;;
7471;SDS011;3777;48.722;8.110;2024-03-08T12:03:03;14.57;;;11.87;;
7471;SDS011;3777;48.722;8.110;2024-03-08T12:05:31;14.57;;;12.37;;
7471;SDS011;3777;48.722;8.110;2024-03-08T12:07:59;15.10;;;12.10;;
7471;SDS011;3777;48.722;8.110;2024-03-08T12:10:26;15.23;;;11.97;;
7471;SDS011;3777;48.722;8.110;2024-03-08T12:12:56;18.13;;;13.00;;
7471;SDS011;3777;48.722;8.110;2024-03-08T12:15:25;15.33;;;12.37;;
7471;SDS011;3777;48.722;8.110;2024-03-08T12:17:53;15.20;;;12.73;;
7471;SDS011;3777;48.722;8.110;2024-03-08T12:20:21;14.27;;;11.67;;
7471;SDS011;3777;48.722;8.110;2024-03-08T12:22:50;14.77;;;11.70;;
7471;SDS011;3777;48.722;8.110;2024-03-08T12:25:18;15.27;;;13.03;;
7471;SDS011;3777;48.722;8.110;2024-03-08T12:27:45;15.60;;;12.60;;
7471;SDS011;3777;48.722;8.110;2024-03-08T12:30:21;16.13;;;12.90;;
7471;SDS011;3777;48.722;8.110;2024-03-08T12:32:52;15.20;;;12.40;;
7471;SDS011;3777;48.722;8.110;2024-03-08T12:35:23;16.10;;;12.30;;
7471;SDS011;3777;48.722;8.110;2024-03-08T12:37:51;15.77;;;12.03;;
7471;SDS011;3777;48.722;8.110;2024-03-08T12:40:19;15.17;;;12.13;;
7471;SDS011;3777;48.722;8.110;2024-03-08T12:42:53;16.63;;;12.97;;
7471;SDS011;3777;48.722;8.110;2024-03-08T12:45:22;13.60;;;11.17;;
7471;SDS011;3777;48.722;8.110;2024-03-08T12:47:49;14.70;;;11.43;;
7471;SDS011;3777;48.722;8.110;2024-03-08T12:50:18;14.50;;;12.23;;
7471;SDS011;3777;48.722;8.110;2024-03-08T12:52:45;15.23;;;12.10;;
7471;SDS011;3777;48.722;8.110;2024-03-08T12:55:12;15.60;;;12.57;;
7471;SDS011;3777;48.722;8.110;2024-03-08T12:57:41;15.20;;;11.87;;
7471;SDS011;3777;48.722;8.110;2024-03-08T13:00:09;14.30;;;11.90;;
7471;SDS011;3777;48.722;8.110;2024-03-08T13:02:39;14.83;;;11.67;;
7471;SDS011;3777;48.722;8.110;2024-03-08T13:05:07;14.97;;;12.23;;
7471;SDS011;3777;48.722;8.110;2024-03-08T13:07:35;14.87;;;11.37;;
7471;SDS011;3777;48.722;8.110;2024-03-08T13:10:03;13.93;;;11.40;;
7471;SDS011;3777;48.722;8.110;2024-03-08T13:12:32;15.13;;;11.90;;
7471;SDS011;3777;48.722;8.110;2024-03-08T13:15:00;14.80;;;11.77;;
7471;SDS011;3777;48.722;8.110;2024-03-08T13:17:26;16.13;;;12.37;;
7471;SDS011;3777;48.722;8.110;2024-03-08T13:19:55;16.40;;;12.23;;
7471;SDS011;3777;48.722;8.110;2024-03-08T13:22:24;13.37;;;10.90;;
7471;SDS011;3777;48.722;8.110;2024-03-08T13:24:50;12.87;;;10.90;;
7471;SDS011;3777;48.722;8.110;2024-03-08T13:27:18;15.60;;;11.90;;
7471;SDS011;3777;48.722;8.110;2024-03-08T13:29:47;14.80;;;11.00;;
7471;SDS011;3777;48.722;8.110;2024-03-08T13:32:14;13.97;;;11.47;;
7471;SDS011;3777;48.722;8.110;2024-03-08T13:34:42;15.10;;;11.07;;
7471;SDS011;3777;48.722;8.110;2024-03-08T13:37:11;13.70;;;11.37;;
7471;SDS011;3777;48.722;8.110;2024-03-08T13:39:41;13.43;;;10.83;;
7471;SDS011;3777;48.722;8.110;2024-03-08T13:42:09;14.93;;;11.57;;
7471;SDS011;3777;48.722;8.110;2024-03-08T13:44:38;13.83;;;10.60;;
7471;SDS011;3777;48.722;8.110;2024-03-08T13:47:09;14.37;;;11.37;;
7471;SDS011;3777;48.722;8.110;2024-03-08T13:49:37;14.40;;;11.07;;
7471;SDS011;3777;48.722;8.110;2024-03-08T13:52:04;14.77;;;11.13;;
7471;SDS011;3777;48.722;8.110;2024-03-08T13:54:34;13.63;;;10.67;;
7471;SDS011;3777;48.722;8.110;2024-03-08T13:57:01;12.97;;;10.97;;
7471;SDS011;3777;48.722;8.110;2024-03-08T13:59:29;12.77;;;10.63;;
7471;SDS011;3777;48.722;8.110;2024-03-08T14:01:58;13.97;;;11.23;;
7471;SDS011;3777;48.722;8.110;2024-03-08T14:04:26;12.97;;;10.37;;
7471;SDS011;3777;48.722;8.110;2024-03-08T14:06:53;12.90;;;10.20;;
7471;SDS011;3777;48.722;8.110;2024-03-08T14:09:22;13.47;;;10.33;;
7471;SDS011;3777;48.722;8.110;2024-03-08T14:11:51;14.50;;;10.47;;
7471;SDS011;3777;48.722;8.110;2024-03-08T14:14:19;12.90;;;10.47;;
7471;SDS011;3777;48.722;8.110;2024-03-08T14:16:48;13.23;;;10.40;;
7471;SDS011;3777;48.722;8.110;2024-03-08T14:19:17;12.30;;;10.63;;
7471;SDS011;3777;48.722;8.110;2024-03-08T14:21:44;14.03;;;10.83;;
7471;SDS011;3777;48.722;8.110;2024-03-08T14:24:12;13.80;;;11.00;;
7471;SDS011;3777;48.722;8.110;2024-03-08T14:26:40;13.57;;;10.37;;
7471;SDS011;3777;48.722;8.110;2024-03-08T14:29:08;15.47;;;11.50;;
7471;SDS011;3777;48.722;8.110;2024-03-08T14:31:36;13.10;;;10.33;;
7471;SDS011;3777;48.722;8.110;2024-03-08T14:34:03;13.17;;;10.67;;
7471;SDS011;3777;48.722;8.110;2024-03-08T14:36:30;14.37;;;11.43;;
7471;SDS011;3777;48.722;8.110;2024-03-08T14:38:57;12.90;;;10.10;;
7471;SDS011;3777;48.722;8.110;2024-03-08T14:41:24;13.13;;;9.80;;
7471;SDS011;3777;48.722;8.110;2024-03-08T14:43:51;10.90;;;9.50;;
7471;SDS011;3777;48.722;8.110;2024-03-08T14:46:20;12.03;;;9.77;;
7471;SDS011;3777;48.722;8.110;2024-03-08T14:48:48;11.00;;;9.37;;
7471;SDS011;3777;48.722;8.110;2024-03-08T14:51:16;11.90;;;9.43;;
7471;SDS011;3777;48.722;8.110;2024-03-08T14:53:46;11.17;;;9.53;;